Time;durP1;ratioP1;P1;durP2;ratioP2;P2;SDS_P1;SDS_P2;PMS_P1;PMS_P2;Temp;Humidity;BMP_temperature;BMP_pressure;BME280_temperature;BME280_humidity;BME280_pressure;Samples;Min_cycle;Max_cycle;Signal;HPM_P1;HPM_P2
2023/05/27 04:00:28;;;;;;;3.20;1.50;;;9.50;99.90;;;;;;6032683;23;21733;31
2023/05/27 04:02:56;;;;;;;2.70;2.50;;;9.60;99.90;;;;;;4909274;29;20459;-73
2023/05/27 04:05:23;;;;;;;2.58;1.90;;;9.70;99.90;;;;;;4913745;29;20238;-73
2023/05/27 04:07:49;;;;;;;8.32;2.78;;;9.70;99.90;;;;;;4913591;29;20251;-73
2023/05/27 04:10:16;;;;;;;1.48;1.48;;;9.70;99.90;;;;;;4914156;29;20242;-73
2023/05/27 04:12:43;;;;;;;3.60;2.05;;;9.80;99.90;;;;;;4910231;29;20278;-73
2023/05/27 04:15:12;;;;;;;7.43;1.75;;;9.80;99.90;;;;;;4913302;29;20206;-73
2023/05/27 04:17:39;;;;;;;6.68;2.95;;;9.90;99.90;;;;;;4913944;29;20545;-73
2023/05/27 04:20:13;;;;;;;3.88;2.53;;;9.90;99.90;;;;;;4914337;29;20202;-73
2023/05/27 04:22:40;;;;;;;1.95;1.30;;;10.00;99.90;;;;;;4917120;29;20211;-73
2023/05/27 04:25:07;;;;;;;2.22;2.13;;;10.30;99.90;;;;;;4915572;29;20218;-73
2023/05/27 04:27:34;;;;;;;2.10;2.10;;;10.70;99.90;;;;;;4917441;29;20723;-74
2023/05/27 04:30:01;;;;;;;7.15;2.20;;;11.20;99.90;;;;;;4918215;29;20337;-74
2023/05/27 04:32:28;;;;;;;4.43;2.10;;;11.50;99.90;;;;;;4918031;29;20609;-74
2023/05/27 04:34:54;;;;;;;2.87;2.27;;;12.00;99.90;;;;;;4914677;29;20557;-74
2023/05/27 04:37:23;;;;;;;3.43;1.80;;;12.30;99.90;;;;;;4917634;29;20465;-74
2023/05/27 04:39:49;;;;;;;1.90;1.40;;;12.60;99.90;;;;;;4918206;29;20466;-73
2023/05/27 04:42:16;;;;;;;2.23;1.77;;;12.90;99.90;;;;;;4916695;29;21033;-74
2023/05/27 04:44:43;;;;;;;1.50;1.30;;;13.30;99.90;;;;;;4917718;29;20574;-74
2023/05/27 04:47:10;;;;;;;3.13;1.47;;;13.60;99.90;;;;;;4918313;29;20477;-74
2023/05/27 04:49:37;;;;;;;2.70;1.37;;;14.00;99.90;;;;;;4918515;29;20490;-73
2023/05/27 04:52:06;;;;;;;1.67;1.57;;;14.20;99.90;;;;;;4917991;29;20489;-73
2023/05/27 04:54:34;;;;;;;7.80;1.73;;;14.30;99.90;;;;;;4917256;29;20534;-74
2023/05/27 04:57:01;;;;;;;1.80;1.50;;;14.50;99.90;;;;;;4914442;29;20497;-74
2023/05/27 04:59:45;;;;;;;4.67;1.50;;;14.70;99.90;;;;;;4917529;29;20575;-74
2023/05/27 05:02:21;;;;;;;4.20;2.60;;;15.10;99.90;;;;;;4917590;29;20561;-74
2023/05/27 05:04:48;;;;;;;1.57;1.50;;;15.40;99.90;;;;;;4917365;29;20480;-74
2023/05/27 05:07:14;;;;;;;1.43;1.30;;;15.50;99.90;;;;;;4917127;29;20963;-74
2023/05/27 05:09:42;;;;;;;1.80;1.07;;;15.60;99.90;;;;;;4915391;29;20490;-74
2023/05/27 05:12:09;;;;;;;1.10;1.10;;;15.50;99.90;;;;;;4916909;29;20498;-72
2023/05/27 05:14:36;;;;;;;1.70;1.60;;;15.00;99.90;;;;;;4917309;29;20481;-71
2023/05/27 05:17:02;;;;;;;1.53;1.43;;;15.10;99.90;;;;;;4917611;29;20475;-72
2023/05/27 05:19:29;;;;;;;1.90;1.27;;;15.20;99.90;;;;;;4917662;29;20824;-72
2023/05/27 05:21:55;;;;;;;1.87;1.77;;;15.40;99.90;;;;;;4916759;29;21055;-73
2023/05/27 05:24:22;;;;;;;0.97;0.97;;;16.00;99.90;;;;;;4913388;29;20518;-73
2023/05/27 05:26:50;;;;;;;0.97;0.97;;;16.20;99.90;;;;;;4916373;29;20479;-72
2023/05/27 05:29:17;;;;;;;1.23;1.23;;;16.30;99.90;;;;;;4917093;29;20522;-73
2023/05/27 05:31:45;;;;;;;1.17;1.17;;;16.30;99.90;;;;;;4917165;29;20862;-73
2023/05/27 05:34:11;;;;;;;1.27;0.90;;;16.40;99.90;;;;;;4915851;29;20473;-73
2023/05/27 05:36:38;;;;;;;1.70;1.60;;;16.50;99.90;;;;;;4916753;29;20470;-72
2023/05/27 05:39:05;;;;;;;2.87;1.47;;;16.50;99.90;;;;;;4909527;29;20474;-72
2023/05/27 05:41:32;;;;;;;1.90;1.37;;;16.30;99.90;;;;;;4916842;29;20591;-72
2023/05/27 05:44:00;;;;;;;1.37;1.27;;;15.90;99.90;;;;;;4916536;29;20468;-72
2023/05/27 05:46:26;;;;;;;3.23;1.50;;;15.70;99.90;;;;;;4917207;29;20466;-72
2023/05/27 05:48:53;;;;;;;3.93;2.27;;;15.40;99.90;;;;;;4917142;29;20846;-72
2023/05/27 05:51:20;;;;;;;1.40;1.40;;;15.30;99.90;;;;;;4916374;29;20491;-72
2023/05/27 05:53:47;;;;;;;4.17;1.77;;;15.50;99.90;;;;;;4915582;29;20553;-73
2023/05/27 05:56:13;;;;;;;4.33;1.73;;;16.00;99.90;;;;;;4916866;29;20470;-71
2023/05/27 05:58:40;;;;;;;1.60;1.53;;;16.50;99.90;;;;;;4917098;29;20531;-72
2023/05/27 06:01:08;;;;;;;3.93;0.87;;;16.90;99.90;;;;;;4917249;29;20504;-73
2023/05/27 06:03:35;;;;;;;4.63;1.43;;;17.10;99.90;;;;;;4917093;29;20470;-72
2023/05/27 06:06:02;;;;;;;1.83;1.27;;;17.30;99.90;;;;;;4917355;29;20475;-72
2023/05/27 06:08:29;;;;;;;3.57;1.93;;;17.70;99.90;;;;;;4917559;29;20470;-73
2023/05/27 06:10:55;;;;;;;0.97;0.97;;;18.00;99.90;;;;;;4919854;29;20504;-72
2023/05/27 06:13:22;;;;;;;3.67;1.43;;;18.40;99.90;;;;;;4919674;29;20503;-72
2023/05/27 06:15:49;;;;;;;3.90;1.07;;;18.70;99.90;;;;;;4920749;29;20477;-73
2023/05/27 06:18:17;;;;;;;0.77;0.77;;;18.90;99.90;;;;;;4919322;29;21121;-72
2023/05/27 06:20:43;;;;;;;2.20;1.23;;;19.00;99.90;;;;;;4918755;29;20493;-72
2023/05/27 06:23:10;;;;;;;2.67;1.53;;;19.10;99.90;;;;;;4912928;29;20483;-71
2023/05/27 06:25:37;;;;;;;1.70;1.30;;;19.10;99.90;;;;;;4915745;29;20471;-72
2023/05/27 06:28:03;;;;;;;1.10;1.10;;;19.40;99.90;;;;;;4916213;29;20951;-73
2023/05/27 06:30:31;;;;;;;5.43;2.07;;;19.50;99.90;;;;;;4916108;29;20489;-72
2023/05/27 06:32:58;;;;;;;1.73;1.50;;;19.60;99.90;;;;;;4915920;29;20470;-72
2023/05/27 06:35:26;;;;;;;1.47;1.37;;;20.10;99.90;;;;;;4915153;29;20485;-72
2023/05/27 06:37:52;;;;;;;2.00;1.90;;;20.10;99.90;;;;;;4915237;29;20911;-73
2023/05/27 06:40:19;;;;;;;1.87;1.20;;;20.20;99.90;;;;;;4916086;29;20472;-72
2023/05/27 06:42:46;;;;;;;3.30;1.50;;;20.50;99.90;;;;;;4915817;29;20507;-73
2023/05/27 06:45:13;;;;;;;1.17;1.07;;;20.90;99.90;;;;;;4914404;29;20983;-73
2023/05/27 06:47:40;;;;;;;1.50;1.33;;;21.10;99.90;;;;;;4915862;29;20538;-73
2023/05/27 06:50:07;;;;;;;1.57;1.30;;;20.70;99.90;;;;;;4914212;29;20492;-73
2023/05/27 06:52:35;;;;;;;1.13;1.10;;;21.10;99.90;;;;;;4914738;29;20542;-72
2023/05/27 06:55:02;;;;;;;1.27;1.27;;;21.40;99.90;;;;;;4915408;29;20473;-72
2023/05/27 06:57:28;;;;;;;1.90;1.80;;;21.80;99.90;;;;;;4915731;29;20480;-72
2023/05/27 06:59:56;;;;;;;1.30;1.30;;;21.80;99.90;;;;;;4915733;29;20617;-73
2023/05/27 07:02:22;;;;;;;2.17;1.20;;;22.30;99.90;;;;;;4915509;29;20513;-73
2023/05/27 07:04:49;;;;;;;1.47;1.30;;;22.60;99.90;;;;;;4914489;29;20526;-72
2023/05/27 07:07:17;;;;;;;1.30;1.30;;;22.70;99.90;;;;;;4915062;29;20473;-72
2023/05/27 07:09:45;;;;;;;1.80;0.90;;;22.10;99.90;;;;;;4915248;29;20493;-72
2023/05/27 07:12:11;;;;;;;2.70;1.20;;;21.90;99.90;;;;;;4915431;29;20726;-72
2023/05/27 07:14:38;;;;;;;1.40;1.40;;;21.80;99.90;;;;;;4914251;29;20478;-72
2023/05/27 07:17:05;;;;;;;0.73;0.73;;;21.90;99.90;;;;;;4915098;29;20470;-72
2023/05/27 07:19:31;;;;;;;1.23;1.13;;;21.90;99.90;;;;;;4914062;29;20887;-72
2023/05/27 07:21:58;;;;;;;1.63;1.53;;;22.20;99.90;;;;;;4913968;29;20493;-72
2023/05/27 07:24:25;;;;;;;1.67;0.93;;;22.50;99.90;;;;;;4911603;29;20489;-73
2023/05/27 07:26:53;;;;;;;1.50;1.40;;;22.50;99.90;;;;;;4914470;29;20607;-72
2023/05/27 07:29:19;;;;;;;1.47;1.37;;;22.80;99.90;;;;;;4912937;29;20799;-72
2023/05/27 07:31:46;;;;;;;2.73;1.50;;;22.80;99.90;;;;;;4914342;29;20489;-72
2023/05/27 07:34:13;;;;;;;2.10;1.23;;;22.80;99.90;;;;;;4914093;29;20474;-73
2023/05/27 07:36:40;;;;;;;2.20;2.10;;;23.20;99.90;;;;;;4914241;29;20474;-73
2023/05/27 07:39:06;;;;;;;1.60;1.13;;;23.40;99.90;;;;;;4906756;29;20479;-73
2023/05/27 07:41:33;;;;;;;1.00;1.00;;;23.60;99.90;;;;;;4913306;29;20838;-73
2023/05/27 07:44:01;;;;;;;1.30;1.20;;;23.50;99.90;;;;;;4913103;29;21039;-72
2023/05/27 07:46:28;;;;;;;2.47;1.60;;;23.50;99.90;;;;;;4912620;29;20481;-73
2023/05/27 07:48:54;;;;;;;0.80;0.80;;;23.50;99.90;;;;;;4913863;29;20522;-72
2023/05/27 07:51:21;;;;;;;0.50;0.50;;;23.40;99.90;;;;;;4911777;29;20565;-73
2023/05/27 07:53:49;;;;;;;0.93;0.67;;;23.70;99.90;;;;;;4909373;29;20479;-73
2023/05/27 07:56:16;;;;;;;1.40;1.30;;;23.70;99.90;;;;;;4911665;29;20474;-72
2023/05/27 07:58:42;;;;;;;3.17;0.90;;;23.60;99.70;;;;;;4914192;29;20474;-73
2023/05/27 08:01:10;;;;;;;1.43;0.70;;;23.50;99.90;;;;;;4912889;29;20614;-73
2023/05/27 08:03:37;;;;;;;2.17;1.07;;;23.30;98.90;;;;;;4913103;29;20482;-73
2023/05/27 08:06:05;;;;;;;0.80;0.80;;;23.30;99.80;;;;;;4912738;29;20476;-72
2023/05/27 08:08:31;;;;;;;2.00;1.90;;;23.10;99.00;;;;;;4913069;29;20470;-73
2023/05/27 08:10:58;;;;;;;1.70;0.60;;;23.30;99.60;;;;;;4912726;29;20577;-74
2023/05/27 08:13:25;;;;;;;2.07;1.03;;;22.90;99.20;;;;;;4912271;29;20478;-73
2023/05/27 08:15:52;;;;;;;4.13;1.10;;;22.60;99.00;;;;;;4907255;29;20477;-72
2023/05/27 08:18:20;;;;;;;0.83;0.67;;;22.60;99.80;;;;;;4912990;29;20462;-72
2023/05/27 08:20:47;;;;;;;1.73;1.40;;;22.80;99.10;;;;;;4913486;29;20538;-71
2023/05/27 08:23:14;;;;;;;1.60;1.00;;;22.90;99.10;;;;;;4907867;29;20467;-71
2023/05/27 08:25:41;;;;;;;1.37;1.23;;;22.90;99.40;;;;;;4906527;29;20587;-71
2023/05/27 08:28:07;;;;;;;0.87;0.87;;;22.80;99.40;;;;;;4913551;29;20470;-72
2023/05/27 08:30:34;;;;;;;0.80;0.63;;;23.10;99.50;;;;;;4913517;29;20502;-72
2023/05/27 08:33:00;;;;;;;0.90;0.90;;;23.30;99.10;;;;;;4913871;29;20485;-72
2023/05/27 08:35:28;;;;;;;1.47;1.17;;;23.00;97.90;;;;;;4912938;29;20470;-71
2023/05/27 08:37:55;;;;;;;1.07;0.80;;;21.90;98.70;;;;;;4912215;29;20485;-72
2023/05/27 08:40:22;;;;;;;1.63;1.20;;;21.50;99.30;;;;;;4913123;29;20548;-72
2023/05/27 08:42:49;;;;;;;1.30;1.30;;;21.30;99.50;;;;;;4912977;29;20561;-72
2023/05/27 08:45:15;;;;;;;0.50;0.50;;;20.90;99.90;;;;;;4912429;29;20477;-72
2023/05/27 08:47:42;;;;;;;0.70;0.70;;;20.50;99.90;;;;;;4907964;29;20489;-72
2023/05/27 08:50:10;;;;;;;1.03;0.90;;;20.00;99.90;;;;;;4913389;29;20835;-72
2023/05/27 08:52:45;;;;;;;2.77;1.00;;;19.80;99.90;;;;;;4911686;29;20586;-72
2023/05/27 08:55:16;;;;;;;2.00;1.30;;;19.50;99.90;;;;;;4912199;29;20483;-72
2023/05/27 08:57:47;;;;;;;10.70;1.97;;;19.30;99.90;;;;;;4913887;29;20530;-73
2023/05/27 09:00:14;;;;;;;3.50;1.33;;;19.20;99.90;;;;;;4913815;29;20652;-72
2023/05/27 09:02:41;;;;;;;2.43;1.00;;;19.20;99.90;;;;;;4913434;29;20769;-72
2023/05/27 09:05:09;;;;;;;3.93;1.27;;;19.10;99.90;;;;;;4912915;29;20977;-71
2023/05/27 09:07:37;;;;;;;1.07;0.93;;;19.00;99.90;;;;;;4912600;29;20475;-71
2023/05/27 09:10:07;;;;;;;2.37;1.23;;;18.90;99.90;;;;;;4916515;29;20717;-72
2023/05/27 09:12:35;;;;;;;1.50;1.03;;;19.00;99.90;;;;;;4909454;29;20565;-72
2023/05/27 09:15:01;;;;;;;2.47;1.53;;;18.80;99.90;;;;;;4916898;29;20470;-71
2023/05/27 09:17:28;;;;;;;1.47;1.23;;;18.90;99.90;;;;;;4916420;29;20600;-71
2023/05/27 09:19:55;;;;;;;1.63;1.43;;;18.80;99.90;;;;;;4917186;29;20538;-71
2023/05/27 09:22:23;;;;;;;1.90;1.07;;;18.50;99.90;;;;;;4916986;29;20529;-72
2023/05/27 09:24:50;;;;;;;1.07;0.97;;;18.80;99.90;;;;;;4915732;29;20562;-71
2023/05/27 09:27:18;;;;;;;12.67;1.57;;;19.10;99.90;;;;;;4915892;29;20816;-72
2023/05/27 09:29:45;;;;;;;1.50;1.40;;;19.20;99.90;;;;;;4916829;29;20462;-71
2023/05/27 09:32:11;;;;;;;2.00;1.43;;;19.20;99.90;;;;;;4916711;29;20597;-72
2023/05/27 09:34:43;;;;;;;4.43;1.50;;;18.90;99.90;;;;;;4916829;29;20875;-72
2023/05/27 09:37:14;;;;;;;2.43;1.10;;;18.90;99.90;;;;;;4916273;29;21033;-72
2023/05/27 09:39:42;;;;;;;3.70;2.10;;;19.00;99.90;;;;;;4915650;29;20529;-72
2023/05/27 09:42:08;;;;;;;2.40;1.10;;;19.40;99.90;;;;;;4916514;29;20618;-72
2023/05/27 09:44:40;;;;;;;7.83;1.10;;;19.40;99.90;;;;;;4907677;29;20475;-72
2023/05/27 09:47:09;;;;;;;2.73;1.30;;;19.50;99.90;;;;;;4915944;29;20474;-72
2023/05/27 09:49:38;;;;;;;4.40;1.37;;;19.30;99.90;;;;;;4916282;29;20538;-72
2023/05/27 09:52:07;;;;;;;0.70;0.70;;;19.20;99.90;;;;;;4915818;29;21017;-72
2023/05/27 09:54:35;;;;;;;1.67;1.57;;;19.20;99.90;;;;;;4915291;29;20498;-73
2023/05/27 09:57:03;;;;;;;4.77;1.50;;;19.20;99.90;;;;;;4915697;29;20471;-72
2023/05/27 09:59:30;;;;;;;1.63;1.53;;;19.30;99.90;;;;;;4916033;29;20536;-71
2023/05/27 10:01:59;;;;;;;1.00;1.00;;;19.30;99.90;;;;;;4915848;29;20495;-73
2023/05/27 10:04:26;;;;;;;0.77;0.77;;;19.30;99.90;;;;;;4915368;29;20466;-72
2023/05/27 10:06:54;;;;;;;1.40;1.13;;;19.50;99.90;;;;;;4915799;29;20466;-73
2023/05/27 10:09:21;;;;;;;0.63;0.63;;;19.50;99.90;;;;;;4915813;29;20477;-72
2023/05/27 10:11:48;;;;;;;1.60;0.90;;;19.50;99.90;;;;;;4915015;29;20498;-72
2023/05/27 10:14:16;;;;;;;1.67;1.50;;;19.60;99.90;;;;;;4915418;29;20569;-72
2023/05/27 10:16:53;;;;;;;5.10;1.83;;;19.60;99.90;;;;;;4915932;29;20474;-72
2023/05/27 10:19:21;;;;;;;1.30;1.30;;;19.50;99.90;;;;;;4915968;29;20908;-73
2023/05/27 10:21:48;;;;;;;2.20;0.80;;;19.70;99.90;;;;;;4915483;29;20515;-73
2023/05/27 10:24:14;;;;;;;2.97;1.63;;;19.80;99.90;;;;;;4915083;29;20532;-73
2023/05/27 10:26:43;;;;;;;1.17;1.07;;;19.80;99.90;;;;;;4914611;29;20497;-73
2023/05/27 10:29:11;;;;;;;2.43;1.03;;;19.90;99.90;;;;;;4915822;29;20853;-73
2023/05/27 10:31:45;;;;;;;1.00;1.00;;;19.90;99.50;;;;;;4915348;29;20498;-73
2023/05/27 10:34:12;;;;;;;2.33;1.90;;;19.80;98.70;;;;;;4915728;29;20538;-73
2023/05/27 10:36:40;;;;;;;2.10;1.90;;;20.00;98.90;;;;;;4915411;29;20990;-73
2023/05/27 10:39:14;;;;;;;1.57;1.47;;;20.10;98.50;;;;;;4914052;29;20582;-73
2023/05/27 10:41:41;;;;;;;2.27;1.70;;;20.20;99.80;;;;;;4915202;29;20578;-73
2023/05/27 10:44:08;;;;;;;1.93;1.83;;;20.20;99.90;;;;;;4915027;29;20489;-73
2023/05/27 10:46:42;;;;;;;1.77;1.13;;;20.10;99.90;;;;;;4915532;29;20466;-73
2023/05/27 10:49:14;;;;;;;1.63;1.53;;;19.90;99.90;;;;;;4915445;29;20485;-73
2023/05/27 10:51:43;;;;;;;3.17;1.20;;;19.70;99.90;;;;;;4914922;29;20494;-73
2023/05/27 10:54:10;;;;;;;5.10;1.57;;;19.60;99.90;;;;;;4913784;29;20477;-73
2023/05/27 10:56:38;;;;;;;1.20;1.20;;;19.50;99.90;;;;;;4914577;29;20482;-73
2023/05/27 10:59:10;;;;;;;1.00;1.00;;;19.50;99.90;;;;;;4915257;29;20542;-73
2023/05/27 11:01:38;;;;;;;2.87;2.67;;;19.50;99.90;;;;;;4914915;29;20490;-73
2023/05/27 11:04:07;;;;;;;1.53;1.37;;;19.50;99.90;;;;;;4913998;29;20477;-73
2023/05/27 11:06:34;;;;;;;1.00;1.00;;;19.60;99.90;;;;;;4896531;29;20467;-72
2023/05/27 11:09:02;;;;;;;1.43;0.90;;;19.90;99.90;;;;;;4896320;29;20550;-73
2023/05/27 11:11:29;;;;;;;3.47;1.50;;;20.00;99.90;;;;;;4896009;29;20578;-69
2023/05/27 11:13:56;;;;;;;4.93;1.50;;;20.10;99.90;;;;;;4895964;29;20984;-72
2023/05/27 11:16:22;;;;;;;1.13;1.03;;;20.10;99.90;;;;;;4899777;29;20808;-68
2023/05/27 11:18:50;;;;;;;3.03;1.33;;;19.90;99.90;;;;;;4914884;29;21027;-72
2023/05/27 11:21:17;;;;;;;1.93;1.70;;;19.90;99.90;;;;;;4914813;29;20486;-71
2023/05/27 11:23:45;;;;;;;4.03;1.57;;;19.90;99.90;;;;;;4913560;29;20832;-71
2023/05/27 11:26:15;;;;;;;1.40;1.00;;;20.00;99.90;;;;;;4914760;29;20463;-71
2023/05/27 11:28:47;;;;;;;1.87;0.93;;;20.00;99.60;;;;;;4914782;29;20573;-71
2023/05/27 11:31:14;;;;;;;2.00;0.87;;;20.20;99.80;;;;;;4913816;29;20858;-72
2023/05/27 11:33:43;;;;;;;1.63;1.53;;;20.20;99.90;;;;;;4914073;29;20467;-71
2023/05/27 11:36:16;;;;;;;1.50;1.40;;;20.30;99.90;;;;;;4914206;29;20513;-72
2023/05/27 11:38:53;;;;;;;2.10;1.50;;;20.40;99.20;;;;;;4913544;29;20968;-71
2023/05/27 11:41:23;;;;;;;1.43;1.20;;;20.40;99.20;;;;;;4914823;29;20501;-72
2023/05/27 11:43:56;;;;;;;3.20;1.30;;;20.40;99.70;;;;;;4913660;29;20542;-73
2023/05/27 11:46:24;;;;;;;1.13;1.13;;;20.30;99.60;;;;;;4912654;29;20553;-71
2023/05/27 11:48:51;;;;;;;1.43;1.13;;;20.30;99.90;;;;;;4914474;29;20458;-70
2023/05/27 11:51:17;;;;;;;2.40;1.80;;;20.30;99.80;;;;;;4913568;29;20995;-71
2023/05/27 11:53:47;;;;;;;1.33;1.33;;;20.20;99.90;;;;;;4912802;29;20474;-72
2023/05/27 11:56:15;;;;;;;0.90;0.90;;;20.30;99.90;;;;;;4913777;29;20458;-72
2023/05/27 11:58:43;;;;;;;1.00;1.00;;;20.20;99.70;;;;;;4914323;29;20462;-72
2023/05/27 12:01:09;;;;;;;2.33;1.23;;;20.20;99.70;;;;;;4913998;29;20490;-72
2023/05/27 12:03:36;;;;;;;2.10;1.80;;;20.30;99.90;;;;;;4913900;29;20911;-68
2023/05/27 12:06:04;;;;;;;1.17;0.90;;;20.40;99.30;;;;;;4913919;29;20474;-72
2023/05/27 12:08:30;;;;;;;1.43;0.80;;;20.40;99.40;;;;;;4906028;29;20513;-73
2023/05/27 12:10:57;;;;;;;1.30;1.30;;;20.50;99.40;;;;;;4913965;29;20562;-72
2023/05/27 12:13:25;;;;;;;1.27;1.03;;;20.50;99.20;;;;;;4913651;29;20474;-72
2023/05/27 12:15:53;;;;;;;1.17;1.17;;;20.50;99.30;;;;;;4913945;29;20941;-73
2023/05/27 12:18:20;;;;;;;3.80;1.17;;;20.70;99.30;;;;;;4914021;29;20577;-72
2023/05/27 12:20:47;;;;;;;1.20;1.20;;;20.80;98.70;;;;;;4912727;29;20502;-72
2023/05/27 12:23:13;;;;;;;1.63;1.37;;;20.80;98.40;;;;;;4910735;29;20819;-72
2023/05/27 12:25:40;;;;;;;1.63;0.87;;;20.70;97.70;;;;;;4913371;29;20462;-73
2023/05/27 12:28:08;;;;;;;0.77;0.77;;;20.50;97.50;;;;;;4914233;29;20481;-72
2023/05/27 12:30:35;;;;;;;0.97;0.90;;;20.50;97.80;;;;;;4914114;29;20498;-72
2023/05/27 12:33:03;;;;;;;1.33;1.23;;;20.50;97.80;;;;;;4914018;29;20954;-72
2023/05/27 12:35:30;;;;;;;1.00;1.00;;;20.50;97.80;;;;;;4912753;29;20849;-72
2023/05/27 12:37:57;;;;;;;3.77;1.40;;;20.40;98.20;;;;;;4912944;29;20501;-72
2023/05/27 12:40:23;;;;;;;1.40;1.13;;;20.40;98.50;;;;;;4913730;29;20529;-72
2023/05/27 12:42:50;;;;;;;1.67;1.23;;;20.50;98.60;;;;;;4916064;29;20843;-72
2023/05/27 12:45:17;;;;;;;1.50;1.40;;;20.70;98.90;;;;;;4917584;29;20819;-72
2023/05/27 12:47:44;;;;;;;1.50;1.40;;;20.80;98.10;;;;;;4913757;29;20834;-72
2023/05/27 12:50:12;;;;;;;3.20;1.17;;;20.90;97.70;;;;;;4917719;29;20875;-72
2023/05/27 12:52:39;;;;;;;2.10;1.20;;;20.90;97.20;;;;;;4916470;29;20504;-72
2023/05/27 12:55:07;;;;;;;3.13;1.10;;;20.70;97.60;;;;;;4916927;29;20821;-72
2023/05/27 12:57:34;;;;;;;2.53;1.37;;;20.60;97.40;;;;;;4916748;29;20878;-72
2023/05/27 13:00:00;;;;;;;5.70;1.10;;;20.60;98.20;;;;;;4917145;29;20472;-72
2023/05/27 13:02:27;;;;;;;3.07;1.70;;;20.50;98.10;;;;;;4916852;29;20494;-72
2023/05/27 13:04:54;;;;;;;1.90;1.00;;;20.40;98.00;;;;;;4916428;29;20461;-72
2023/05/27 13:07:22;;;;;;;1.33;1.33;;;20.40;98.30;;;;;;4916838;29;20470;-71
2023/05/27 13:09:48;;;;;;;1.13;1.10;;;20.60;98.30;;;;;;4916687;29;20471;-71
2023/05/27 13:12:15;;;;;;;0.97;0.97;;;20.70;98.60;;;;;;4916812;29;20498;-71
2023/05/27 13:14:42;;;;;;;2.03;1.83;;;20.60;97.70;;;;;;4915976;29;20478;-71
2023/05/27 13:17:09;;;;;;;4.30;1.50;;;20.70;98.40;;;;;;4917216;29;21003;-71
2023/05/27 13:19:36;;;;;;;2.13;1.10;;;20.80;98.60;;;;;;4917589;29;20470;-71
2023/05/27 13:22:04;;;;;;;1.60;0.87;;;20.70;97.50;;;;;;4917110;29;20486;-72
2023/05/27 13:24:32;;;;;;;1.83;1.13;;;20.60;97.90;;;;;;4916440;29;20549;-72
2023/05/27 13:26:58;;;;;;;1.10;1.10;;;20.60;98.60;;;;;;4917656;29;20470;-72
2023/05/27 13:29:25;;;;;;;2.53;0.80;;;20.70;98.10;;;;;;4917039;29;20626;-72
2023/05/27 13:31:52;;;;;;;1.90;1.00;;;21.00;97.50;;;;;;4918012;29;20494;-72
2023/05/27 13:34:18;;;;;;;2.10;1.33;;;21.10;97.40;;;;;;4916472;29;20466;-71
2023/05/27 13:36:45;;;;;;;1.20;1.20;;;21.20;97.00;;;;;;4916811;29;20568;-71
2023/05/27 13:39:12;;;;;;;8.20;1.67;;;21.20;97.10;;;;;;4916617;29;21015;-71
2023/05/27 13:41:40;;;;;;;1.13;1.07;;;21.10;96.60;;;;;;4916273;29;20486;-72
2023/05/27 13:44:06;;;;;;;1.53;1.43;;;21.10;96.40;;;;;;4916621;29;20467;-72
2023/05/27 13:46:33;;;;;;;0.90;0.90;;;21.20;96.30;;;;;;4917117;29;20469;-70
2023/05/27 13:49:06;;;;;;;6.07;1.90;;;21.40;96.40;;;;;;4916925;29;20478;-72
2023/05/27 13:51:33;;;;;;;3.47;1.27;;;21.50;96.10;;;;;;4916760;29;20574;-71
2023/05/27 13:54:00;;;;;;;4.10;0.90;;;21.40;95.90;;;;;;4915559;29;20523;-71
2023/05/27 13:56:27;;;;;;;1.13;1.00;;;21.50;96.70;;;;;;4909346;29;20490;-71
2023/05/27 13:58:55;;;;;;;1.33;1.33;;;21.50;95.50;;;;;;4922308;29;20471;-71
2023/05/27 14:01:21;;;;;;;3.50;1.33;;;21.50;95.10;;;;;;4921139;29;20498;-71
2023/05/27 14:03:48;;;;;;;0.80;0.70;;;21.50;94.70;;;;;;4916795;29;20558;-71
2023/05/27 14:06:15;;;;;;;1.43;1.33;;;21.50;94.90;;;;;;4916424;29;20470;-71
2023/05/27 14:08:41;;;;;;;1.47;1.10;;;21.50;95.20;;;;;;4915961;29;20947;-71
2023/05/27 14:11:08;;;;;;;2.20;1.27;;;21.60;95.50;;;;;;4916700;29;20494;-71
2023/05/27 14:13:35;;;;;;;1.53;1.30;;;21.70;94.90;;;;;;4916297;29;20936;-71
2023/05/27 14:16:03;;;;;;;1.03;1.03;;;21.70;95.10;;;;;;4916190;29;20481;-71
2023/05/27 14:18:30;;;;;;;0.60;0.60;;;21.70;95.10;;;;;;4916948;29;20473;-71
2023/05/27 14:20:57;;;;;;;2.20;0.87;;;21.80;95.00;;;;;;4916007;29;20490;-71
2023/05/27 14:23:23;;;;;;;0.97;0.90;;;21.70;94.80;;;;;;4914599;29;20513;-70
2023/05/27 14:25:50;;;;;;;1.60;0.90;;;21.80;95.20;;;;;;4916360;29;20886;-70
2023/05/27 14:28:16;;;;;;;0.77;0.77;;;21.80;94.70;;;;;;4916155;29;20578;-71
2023/05/27 14:30:43;;;;;;;1.23;1.23;;;21.90;95.00;;;;;;4915536;29;20502;-71
2023/05/27 14:33:12;;;;;;;1.43;1.10;;;21.80;94.90;;;;;;4915945;29;20513;-72
2023/05/27 14:35:40;;;;;;;2.50;1.17;;;21.70;95.00;;;;;;4911705;29;20483;-71
2023/05/27 14:38:07;;;;;;;0.73;0.73;;;21.60;94.80;;;;;;4912970;29;20470;-71
2023/05/27 14:40:34;;;;;;;0.93;0.93;;;21.70;95.10;;;;;;4917396;29;20586;-71
2023/05/27 14:43:01;;;;;;;1.40;1.40;;;21.70;94.60;;;;;;4916604;29;20467;-72
2023/05/27 14:45:28;;;;;;;1.20;1.20;;;21.80;94.80;;;;;;4916230;29;20481;-71
2023/05/27 14:47:55;;;;;;;1.93;0.90;;;21.90;95.20;;;;;;4916594;29;20817;-72
2023/05/27 14:50:25;;;;;;;1.27;1.23;;;21.70;94.80;;;;;;4908477;29;20847;-72
2023/05/27 14:52:52;;;;;;;1.60;1.10;;;21.80;95.10;;;;;;4915205;29;20490;-72
2023/05/27 14:55:19;;;;;;;4.97;1.07;;;21.80;95.30;;;;;;4915632;29;20466;-71
2023/05/27 14:57:45;;;;;;;1.10;1.00;;;21.90;94.80;;;;;;4915874;29;20470;-71
2023/05/27 15:00:13;;;;;;;1.13;0.87;;;21.90;95.10;;;;;;4918044;29;20478;-71
2023/05/27 15:02:40;;;;;;;1.40;1.30;;;22.00;94.70;;;;;;4917625;29;20486;-71
2023/05/27 15:05:09;;;;;;;0.90;0.90;;;22.10;94.10;;;;;;4917453;29;20474;-71
2023/05/27 15:07:37;;;;;;;1.13;1.13;;;22.20;94.10;;;;;;4915054;29;20468;-71
2023/05/27 15:10:05;;;;;;;1.07;1.07;;;22.40;93.80;;;;;;4915866;29;20478;-71
2023/05/27 15:12:40;;;;;;;2.00;1.20;;;22.40;94.00;;;;;;4915447;29;20594;-71
2023/05/27 15:15:08;;;;;;;0.93;0.90;;;22.40;93.40;;;;;;4915337;29;20454;-71
2023/05/27 15:17:35;;;;;;;0.63;0.63;;;22.20;93.60;;;;;;4914863;29;20506;-71
2023/05/27 15:20:02;;;;;;;1.30;1.30;;;22.20;93.80;;;;;;4915524;29;20462;-71
2023/05/27 15:22:28;;;;;;;3.10;1.40;;;22.40;94.50;;;;;;4914883;29;20501;-71
2023/05/27 15:24:56;;;;;;;1.00;1.00;;;22.50;93.50;;;;;;4911975;29;20472;-71
2023/05/27 15:27:23;;;;;;;2.20;1.27;;;22.60;93.70;;;;;;4915153;29;20468;-71
2023/05/27 15:29:50;;;;;;;1.47;1.47;;;22.70;93.80;;;;;;4914707;29;20960;-71
2023/05/27 15:32:17;;;;;;;3.17;1.50;;;22.80;93.20;;;;;;4914772;29;20496;-72
2023/05/27 15:34:44;;;;;;;3.40;1.37;;;22.80;93.20;;;;;;4914488;29;20936;-73
2023/05/27 15:37:10;;;;;;;1.10;1.10;;;22.90;93.50;;;;;;4914497;29;20950;-72
2023/05/27 15:39:37;;;;;;;1.53;0.83;;;22.80;92.60;;;;;;4914730;29;20894;-71
2023/05/27 15:42:06;;;;;;;1.50;1.20;;;22.60;93.20;;;;;;4914898;29;20495;-72
2023/05/27 15:44:33;;;;;;;2.00;1.60;;;22.60;93.50;;;;;;4913593;29;20475;-72
2023/05/27 15:47:00;;;;;;;0.63;0.63;;;22.50;92.80;;;;;;4914963;29;20464;-73
2023/05/27 15:49:27;;;;;;;1.40;1.30;;;22.50;93.20;;;;;;4914720;29;20475;-72
2023/05/27 15:51:53;;;;;;;2.17;1.73;;;22.30;93.30;;;;;;4914039;29;20495;-72
2023/05/27 15:54:20;;;;;;;1.13;1.13;;;22.20;93.20;;;;;;4913944;29;20495;-73
2023/05/27 15:56:46;;;;;;;1.53;1.00;;;22.30;94.20;;;;;;4914070;29;20552;-73
2023/05/27 15:59:14;;;;;;;3.80;2.10;;;22.40;93.70;;;;;;4914893;29;20468;-72
2023/05/27 16:01:41;;;;;;;1.07;1.07;;;22.30;93.30;;;;;;4914732;29;20562;-73
2023/05/27 16:04:08;;;;;;;1.13;1.03;;;22.30;93.60;;;;;;4914020;29;20976;-72
2023/05/27 16:06:35;;;;;;;1.40;1.30;;;22.20;93.40;;;;;;4915370;29;20501;-72
2023/05/27 16:09:03;;;;;;;0.93;0.93;;;22.20;93.60;;;;;;4914684;29;20474;-73
2023/05/27 16:11:30;;;;;;;1.20;1.20;;;22.10;93.90;;;;;;4913717;29;20503;-72
2023/05/27 16:13:57;;;;;;;3.23;1.13;;;22.00;93.60;;;;;;4914121;29;20487;-73
2023/05/27 16:16:25;;;;;;;3.30;1.00;;;21.90;93.90;;;;;;4916716;29;20471;-72
2023/05/27 16:18:52;;;;;;;0.50;0.50;;;21.90;93.60;;;;;;4916667;29;20467;-72
2023/05/27 16:21:19;;;;;;;0.77;0.77;;;21.80;94.10;;;;;;4914759;29;20494;-73
2023/05/27 16:23:45;;;;;;;0.50;0.50;;;21.80;94.50;;;;;;4912317;29;20466;-72
2023/05/27 16:26:13;;;;;;;0.90;0.90;;;21.80;93.90;;;;;;4914213;29;20467;-72
2023/05/27 16:28:40;;;;;;;0.73;0.73;;;21.80;93.80;;;;;;4914381;29;20549;-73
2023/05/27 16:31:07;;;;;;;1.23;1.23;;;21.70;94.40;;;;;;4914158;29;20627;-73
2023/05/27 16:33:35;;;;;;;6.37;0.90;;;21.90;94.60;;;;;;4913375;29;20568;-73
2023/05/27 16:36:01;;;;;;;0.87;0.70;;;21.90;94.10;;;;;;4914318;29;20554;-73
2023/05/27 16:38:28;;;;;;;1.20;1.20;;;21.90;94.10;;;;;;4913465;29;20482;-72
2023/05/27 16:40:55;;;;;;;2.00;0.87;;;21.80;94.50;;;;;;4914203;29;20490;-72
2023/05/27 16:43:21;;;;;;;1.17;0.70;;;21.80;94.20;;;;;;4913838;29;20463;-73
2023/05/27 16:45:48;;;;;;;0.90;0.90;;;21.80;94.60;;;;;;4914499;29;20478;-73
2023/05/27 16:48:15;;;;;;;3.00;0.87;;;21.80;94.80;;;;;;4914236;29;20509;-72